Time;durP1;ratioP1;P1;durP2;ratioP2;P2;SDS_P1;SDS_P2;PMS_P1;PMS_P2;Temp;Humidity;BMP_temperature;BMP_pressure;BME280_temperature;BME280_humidity;BME280_pressure;Samples;Min_cycle;Max_cycle;Signal;HPM_P1;HPM_P2
2023/10/08 00:01:42;;;;;;;16.83;4.22;;;18.40;93.80;;;;;;4958778;29;20031;-84
2023/10/08 00:04:10;;;;;;;14.80;3.75;;;18.40;93.90;;;;;;4957157;29;20039;-84
2023/10/08 00:06:37;;;;;;;22.42;4.70;;;18.30;94.00;;;;;;4958660;29;20035;-83
2023/10/08 00:09:08;;;;;;;14.07;4.15;;;18.30;94.10;;;;;;4958594;29;20131;-83
2023/10/08 00:11:37;;;;;;;16.25;4.20;;;18.30;94.20;;;;;;4958815;29;20031;-82
2023/10/08 00:14:08;;;;;;;15.52;4.45;;;18.30;94.30;;;;;;4958521;29;20046;-84
2023/10/08 00:16:34;;;;;;;13.65;4.57;;;18.30;94.50;;;;;;4958578;29;20035;-84
2023/10/08 00:19:08;;;;;;;15.10;4.72;;;18.30;94.60;;;;;;4957780;29;20380;-81
2023/10/08 00:21:35;;;;;;;16.67;4.65;;;18.20;94.80;;;;;;4958427;29;20035;-83
2023/10/08 00:24:05;;;;;;;16.98;4.25;;;18.20;95.00;;;;;;4958345;29;20063;-83
2023/10/08 00:26:31;;;;;;;15.52;3.78;;;18.20;95.00;;;;;;4958163;29;20110;-84
2023/10/08 00:29:06;;;;;;;19.77;4.85;;;18.20;94.90;;;;;;4956912;29;20427;-84
2023/10/08 00:31:37;;;;;;;18.25;4.50;;;18.20;95.00;;;;;;4957992;29;20447;-83
2023/10/08 00:34:11;;;;;;;13.68;4.38;;;18.20;95.10;;;;;;4957977;29;20123;-84
2023/10/08 00:36:37;;;;;;;;;;;18.20;95.40;;;;;;4958628;29;20095;-84
2023/10/08 00:39:08;;;;;;;14.95;4.40;;;18.10;95.50;;;;;;4957808;29;19914;-84
2023/10/08 00:41:33;;;;;;;14.77;3.80;;;18.10;95.50;;;;;;4957975;29;20078;-84
2023/10/08 00:44:00;;;;;;;18.45;4.65;;;18.10;95.60;;;;;;4958149;29;20440;-84
2023/10/08 00:47:11;;;;;;;14.63;4.25;;;18.10;95.60;;;;;;4958199;29;20035;-84
2023/10/08 00:49:24;;;;;;;17.10;3.83;;;18.10;95.80;;;;;;4953440;29;20016;-83
2023/10/08 00:57:36;;;;;;;11.82;3.72;;;18.10;96.30;;;;;;4953349;28;19906;-84
2023/10/08 01:00:05;;;;;;;17.67;4.05;;;18.10;96.30;;;;;;4956585;29;20157;-84
2023/10/08 01:02:55;;;;;;;13.10;4.32;;;18.10;96.60;;;;;;4957679;29;20096;-84
2023/10/08 01:05:28;;;;;;;18.73;4.20;;;18.00;96.50;;;;;;4957568;29;20031;-84
2023/10/08 01:07:55;;;;;;;14.82;3.78;;;18.10;96.60;;;;;;4957704;29;20031;-84
2023/10/08 01:10:24;;;;;;;16.85;4.72;;;18.00;96.90;;;;;;4940395;29;20036;-84
2023/10/08 01:15:28;;;;;;;21.65;5.50;;;18.00;97.20;;;;;;4956643;29;20042;-84
2023/10/08 01:18:00;;;;;;;18.75;5.85;;;18.00;97.20;;;;;;4956888;29;20055;-84
2023/10/08 01:23:22;;;;;;;14.73;4.22;;;17.90;97.40;;;;;;4957295;29;20130;-84
2023/10/08 01:25:56;;;;;;;18.27;4.65;;;18.00;97.50;;;;;;4939855;29;20037;-83
2023/10/08 01:28:29;;;;;;;12.88;4.32;;;17.90;97.50;;;;;;4939855;29;20032;-83
2023/10/08 01:31:00;;;;;;;14.97;3.90;;;17.90;97.60;;;;;;4956895;29;20110;-84
2023/10/08 01:33:37;;;;;;;13.88;4.45;;;17.90;97.60;;;;;;4957071;29;20771;-83
2023/10/08 01:36:04;;;;;;;13.98;4.45;;;17.90;97.70;;;;;;4939649;29;20510;-83
2023/10/08 01:38:33;;;;;;;19.23;5.30;;;17.90;97.80;;;;;;4956862;29;20041;-83
2023/10/08 01:43:44;;;;;;;27.23;9.75;;;17.90;97.90;;;;;;4957030;29;20042;-83
2023/10/08 01:46:11;;;;;;;29.83;13.70;;;17.90;98.00;;;;;;4956365;29;20088;-82
2023/10/08 01:48:41;;;;;;;34.22;15.32;;;17.90;98.00;;;;;;4956543;29;20035;-83
2023/10/08 01:51:11;;;;;;;42.75;17.63;;;17.90;98.10;;;;;;4955241;29;20034;-83
2023/10/08 01:53:38;;;;;;;41.30;18.15;;;17.90;98.20;;;;;;4939380;29;20039;-82
2023/10/08 01:56:04;;;;;;;40.33;18.60;;;17.90;98.30;;;;;;4956696;29;20507;-83
2023/10/08 01:58:30;;;;;;;44.08;20.45;;;17.90;98.30;;;;;;4939100;29;20539;-82
2023/10/08 02:00:59;;;;;;;41.75;18.80;;;17.90;98.40;;;;;;4955224;29;20023;-82
2023/10/08 02:03:27;;;;;;;40.13;19.40;;;17.90;98.50;;;;;;4956500;29;20031;-82
2023/10/08 02:05:53;;;;;;;33.45;16.45;;;17.80;98.50;;;;;;4956528;29;20038;-83
2023/10/08 02:08:21;;;;;;;40.25;15.65;;;17.80;98.50;;;;;;4955866;28;20142;-82
2023/10/08 02:10:49;;;;;;;28.70;14.27;;;17.80;98.60;;;;;;4939109;29;20039;-83
2023/10/08 02:13:16;;;;;;;30.52;13.00;;;17.80;98.70;;;;;;4955923;29;20487;-83
2023/10/08 02:15:45;;;;;;;28.40;11.55;;;17.80;98.70;;;;;;4938981;29;20061;-82
2023/10/08 02:18:11;;;;;;;29.48;10.55;;;17.70;98.80;;;;;;4956092;29;20451;-83
2023/10/08 02:20:36;;;;;;;33.97;11.27;;;17.70;98.90;;;;;;4956187;29;20083;-83
2023/10/08 02:23:05;;;;;;;29.35;11.07;;;17.70;98.90;;;;;;4939021;29;20027;-83
2023/10/08 02:25:31;;;;;;;27.77;10.18;;;17.70;99.00;;;;;;4956049;29;20457;-83
2023/10/08 02:27:57;;;;;;;20.45;9.07;;;17.70;99.00;;;;;;4938299;29;20045;-82
2023/10/08 02:30:23;;;;;;;25.63;9.20;;;17.70;99.10;;;;;;4955826;29;20114;-82
2023/10/08 02:32:49;;;;;;;21.98;9.55;;;17.70;99.20;;;;;;4955978;29;20032;-82
2023/10/08 02:35:15;;;;;;;20.92;8.35;;;17.70;99.20;;;;;;4955098;29;20051;-82
2023/10/08 02:37:41;;;;;;;20.00;7.55;;;17.70;99.30;;;;;;4955745;29;20031;-82
2023/10/08 02:40:25;;;;;;;18.70;6.72;;;17.70;99.40;;;;;;4956075;29;20035;-82
2023/10/08 02:42:57;;;;;;;18.83;6.50;;;17.70;99.40;;;;;;4938078;29;20546;-83
2023/10/08 02:45:27;;;;;;;15.52;5.40;;;17.70;99.50;;;;;;4955726;29;20031;-84
2023/10/08 02:47:53;;;;;;;13.02;5.32;;;17.60;99.50;;;;;;4938454;29;20035;-82
2023/10/08 02:50:19;;;;;;;15.70;5.30;;;17.60;99.50;;;;;;4955123;29;20039;-82
2023/10/08 02:52:45;;;;;;;11.38;4.53;;;17.70;99.50;;;;;;4954389;29;20046;-83
2023/10/08 02:55:28;;;;;;;18.70;5.95;;;17.70;99.60;;;;;;4955429;29;20047;-82
2023/10/08 02:57:56;;;;;;;17.42;4.97;;;17.70;99.50;;;;;;4955227;29;20050;-83
2023/10/08 03:00:23;;;;;;;14.70;4.95;;;17.70;99.50;;;;;;4955187;29;20031;-83
2023/10/08 03:02:49;;;;;;;16.90;4.97;;;17.60;99.50;;;;;;4955427;29;20099;-82
2023/10/08 03:05:17;;;;;;;14.88;5.05;;;17.70;99.60;;;;;;4955678;29;20463;-83
2023/10/08 03:07:43;;;;;;;13.35;4.63;;;17.70;99.60;;;;;;4955029;29;20035;-81
2023/10/08 03:10:18;;;;;;;18.55;5.80;;;17.70;99.60;;;;;;4955322;29;20472;-82
2023/10/08 03:12:49;;;;;;;15.73;4.65;;;17.60;99.60;;;;;;4937684;29;20031;-83
2023/10/08 03:15:31;;;;;;;15.98;4.78;;;17.60;99.60;;;;;;4955032;29;20059;-83
2023/10/08 03:18:10;;;;;;;12.52;5.40;;;17.60;99.60;;;;;;4955177;29;20411;-83
2023/10/08 03:20:43;;;;;;;15.60;5.18;;;17.60;99.60;;;;;;4954627;28;20031;-83
2023/10/08 03:23:33;;;;;;;15.60;5.68;;;17.60;99.60;;;;;;4937966;29;20046;-83
2023/10/08 03:26:17;;;;;;;13.88;5.60;;;17.60;99.60;;;;;;4954896;29;20031;-83
2023/10/08 03:28:43;;;;;;;12.02;5.20;;;17.60;99.60;;;;;;4937919;29;20035;-83
2023/10/08 03:31:17;;;;;;;15.25;5.20;;;17.60;99.60;;;;;;4937716;29;20365;-83
2023/10/08 03:33:48;;;;;;;13.65;5.40;;;17.60;99.60;;;;;;4955158;29;20036;-82
2023/10/08 03:36:21;;;;;;;13.38;5.20;;;17.50;99.60;;;;;;4939055;29;20094;-83
2023/10/08 03:38:52;;;;;;;13.05;4.95;;;17.50;99.60;;;;;;4957069;29;20115;-83
2023/10/08 03:41:28;;;;;;;14.88;4.93;;;17.50;99.60;;;;;;4956521;29;20041;-83
2023/10/08 03:44:05;;;;;;;13.68;4.93;;;17.50;99.60;;;;;;4955435;29;20083;-83
2023/10/08 03:46:39;;;;;;;13.65;5.07;;;17.50;99.70;;;;;;4962263;29;20475;-82
2023/10/08 03:49:11;;;;;;;14.63;4.85;;;17.50;99.70;;;;;;4944971;29;20039;-83
2023/10/08 03:51:40;;;;;;;15.48;5.00;;;17.50;99.70;;;;;;4955939;29;20069;-82
2023/10/08 03:56:45;;;;;;;11.18;5.00;;;17.50;99.70;;;;;;4955020;29;20046;-83
2023/10/08 03:59:41;;;;;;;11.65;4.75;;;17.50;99.70;;;;;;4954761;29;20031;-84
2023/10/08 04:02:22;;;;;;;15.68;5.63;;;17.50;99.70;;;;;;4954648;29;20039;-83
2023/10/08 04:04:51;;;;;;;12.48;5.22;;;17.40;99.60;;;;;;4937564;29;20039;-82
2023/10/08 04:07:39;;;;;;;13.95;5.55;;;17.40;99.60;;;;;;4954873;29;20036;-82
2023/10/08 04:10:34;;;;;;;12.38;4.93;;;17.40;99.60;;;;;;4954629;29;20149;-83
2023/10/08 04:12:52;;;;;;;16.27;6.38;;;17.40;99.70;;;;;;4954683;29;20031;-84
2023/10/08 04:15:18;;;;;;;16.38;5.72;;;17.40;99.70;;;;;;4954562;29;20063;-83
2023/10/08 04:17:44;;;;;;;15.32;5.88;;;17.40;99.70;;;;;;4954560;29;20511;-83
2023/10/08 04:20:32;;;;;;;17.42;5.88;;;17.40;99.70;;;;;;4937511;29;20038;-83
2023/10/08 04:22:59;;;;;;;13.63;5.50;;;17.40;99.70;;;;;;4954902;29;20110;-82
2023/10/08 04:25:29;;;;;;;12.57;6.60;;;17.40;99.80;;;;;;4954098;29;20031;-81
2023/10/08 04:28:01;;;;;;;16.35;6.53;;;17.40;99.80;;;;;;4953608;29;20031;-83
2023/10/08 04:30:33;;;;;;;18.65;7.50;;;17.40;99.80;;;;;;4954560;29;20043;-84
2023/10/08 04:33:06;;;;;;;18.30;7.55;;;17.30;99.90;;;;;;4956921;28;20046;-83
2023/10/08 04:35:47;;;;;;;17.63;6.32;;;17.30;99.90;;;;;;4957755;29;20051;-82
2023/10/08 04:38:23;;;;;;;15.57;6.35;;;17.40;99.90;;;;;;4957782;29;20024;-82
2023/10/08 04:40:51;;;;;;;16.42;7.13;;;17.40;99.90;;;;;;4941089;29;20138;-83
2023/10/08 04:43:27;;;;;;;16.67;5.72;;;17.40;99.90;;;;;;4940692;29;20032;-83
2023/10/08 04:45:57;;;;;;;20.00;7.60;;;17.40;99.90;;;;;;4957753;29;20023;-83
2023/10/08 04:48:24;;;;;;;18.95;7.13;;;17.40;99.90;;;;;;4957485;29;20038;-83
2023/10/08 04:51:01;;;;;;;17.83;6.43;;;17.40;99.90;;;;;;4957763;29;20034;-82
2023/10/08 04:53:32;;;;;;;14.88;5.15;;;17.40;99.90;;;;;;4957267;29;20131;-83
2023/10/08 04:56:16;;;;;;;16.15;4.90;;;17.40;99.90;;;;;;4958012;29;20488;-83
2023/10/08 04:58:48;;;;;;;17.70;5.25;;;17.40;99.90;;;;;;4940759;29;20031;-83
2023/10/08 05:01:18;;;;;;;12.27;4.00;;;17.40;99.90;;;;;;4960001;28;20391;-83
2023/10/08 05:17:34;;;;;;;7.63;2.88;;;17.30;99.80;;;;;;4976671;28;20037;-83
2023/10/08 05:30:25;;;;;;;12.98;3.00;;;17.10;99.20;;;;;;4976378;28;20034;-82
2023/10/08 05:38:16;;;;;;;11.73;3.20;;;16.90;98.90;;;;;;4976140;28;20035;-83
2023/10/08 05:52:07;;;;;;;8.73;2.78;;;16.70;98.60;;;;;;4975705;28;20427;-82
2023/10/08 06:13:06;;;;;;;7.15;2.60;;;16.40;98.50;;;;;;4977213;28;20399;-82
2023/10/08 06:16:04;;;;;;;7.07;2.40;;;16.40;98.50;;;;;;4976652;28;20398;-82
2023/10/08 06:18:31;;;;;;;9.25;2.28;;;16.30;98.50;;;;;;4958191;28;20139;-82
2023/10/08 06:21:08;;;;;;;9.35;2.60;;;16.30;98.40;;;;;;4975432;28;20094;-83
2023/10/08 06:23:36;;;;;;;6.65;2.50;;;16.20;98.40;;;;;;4975108;28;20086;-82
2023/10/08 06:26:25;;;;;;;6.07;1.98;;;16.20;98.40;;;;;;4958147;28;20035;-83
2023/10/08 06:28:57;;;;;;;11.75;2.45;;;16.20;98.40;;;;;;4975183;28;20566;-82
2023/10/08 06:31:24;;;;;;;6.78;1.98;;;16.20;98.30;;;;;;4958103;28;20042;-82
2023/10/08 06:33:50;;;;;;;5.05;1.90;;;16.20;98.30;;;;;;4957439;28;20039;-82
2023/10/08 06:36:16;;;;;;;7.35;2.13;;;16.20;98.20;;;;;;4974962;28;20491;-82
2023/10/08 06:38:44;;;;;;;8.32;2.22;;;16.10;98.20;;;;;;4975033;28;20177;-82
2023/10/08 06:43:43;;;;;;;5.03;2.10;;;16.10;98.10;;;;;;4975087;28;20093;-82
2023/10/08 06:46:12;;;;;;;6.25;2.03;;;16.10;98.00;;;;;;4974988;28;20057;-83
2023/10/08 06:48:42;;;;;;;6.63;2.17;;;16.00;97.90;;;;;;4974580;28;20498;-82
2023/10/08 06:51:12;;;;;;;5.32;1.65;;;16.00;97.90;;;;;;4957676;28;20039;-83
2023/10/08 06:53:44;;;;;;;5.97;1.75;;;16.00;97.90;;;;;;4957763;28;20047;-81
2023/10/08 06:56:12;;;;;;;10.45;2.35;;;16.00;97.90;;;;;;4957385;28;20082;-82
2023/10/08 06:58:38;;;;;;;10.48;2.20;;;15.90;97.80;;;;;;4957181;28;20022;-82
2023/10/08 07:01:05;;;;;;;7.90;1.48;;;15.90;97.80;;;;;;4975015;28;20039;-82
2023/10/08 07:03:32;;;;;;;4.55;1.40;;;16.00;97.70;;;;;;4974436;28;20051;-81
2023/10/08 07:05:59;;;;;;;4.28;1.35;;;16.00;97.70;;;;;;4989549;28;20043;-82
2023/10/08 07:08:27;;;;;;;6.68;1.45;;;15.90;97.70;;;;;;4974681;28;20073;-81
2023/10/08 07:10:56;;;;;;;4.38;1.80;;;16.00;97.60;;;;;;4974395;28;20126;-82
2023/10/08 07:13:22;;;;;;;7.18;1.70;;;15.90;97.50;;;;;;4946165;28;20031;-83
2023/10/08 07:15:52;;;;;;;4.45;1.63;;;15.90;97.50;;;;;;4964093;28;20037;-82
2023/10/08 07:18:24;;;;;;;4.05;1.55;;;15.90;97.50;;;;;;4963955;28;20039;-82
2023/10/08 07:20:56;;;;;;;4.15;1.35;;;15.90;97.50;;;;;;4963306;28;20039;-82
2023/10/08 07:23:25;;;;;;;4.63;1.50;;;15.90;97.50;;;;;;4963539;28;20031;-82
2023/10/08 07:26:23;;;;;;;5.38;1.50;;;16.00;97.50;;;;;;4946012;28;20028;-82
2023/10/08 07:28:51;;;;;;;5.68;1.50;;;16.00;97.40;;;;;;4965728;28;20038;-81
2023/10/08 07:31:22;;;;;;;7.72;1.73;;;16.00;97.30;;;;;;4946946;28;20038;-82
2023/10/08 07:33:56;;;;;;;5.93;1.58;;;16.00;97.30;;;;;;4964540;28;20546;-82
2023/10/08 07:36:26;;;;;;;4.15;1.92;;;16.00;97.20;;;;;;4947314;28;20046;-83
2023/10/08 07:38:53;;;;;;;5.10;2.08;;;16.10;97.30;;;;;;4962446;28;20027;-82
2023/10/08 07:41:20;;;;;;;6.03;1.70;;;16.10;97.20;;;;;;4973640;28;20062;-82
2023/10/08 07:43:55;;;;;;;3.70;1.88;;;16.10;97.20;;;;;;4973594;28;20062;-82
2023/10/08 07:46:26;;;;;;;4.50;2.33;;;16.10;97.10;;;;;;4962957;28;20095;-82
2023/10/08 07:48:52;;;;;;;4.65;2.28;;;16.10;97.10;;;;;;4946169;28;20023;-82
2023/10/08 07:51:22;;;;;;;7.57;2.40;;;16.10;97.00;;;;;;4964546;28;20046;-82
2023/10/08 07:54:00;;;;;;;6.63;2.40;;;16.20;97.00;;;;;;4946208;28;20086;-82
2023/10/08 07:56:26;;;;;;;5.22;2.00;;;16.20;97.00;;;;;;4948968;28;20019;-82
2023/10/08 07:58:55;;;;;;;5.65;3.00;;;16.20;96.90;;;;;;4963609;28;20034;-81
2023/10/08 08:01:24;;;;;;;5.05;2.70;;;16.20;96.90;;;;;;4947308;28;20027;-83
2023/10/08 08:03:50;;;;;;;4.95;2.63;;;16.30;96.90;;;;;;4962456;28;20049;-82
2023/10/08 08:06:16;;;;;;;4.97;2.42;;;16.40;96.90;;;;;;4964729;28;20035;-82
2023/10/08 08:08:44;;;;;;;5.47;2.70;;;16.40;96.90;;;;;;4958859;28;20032;-81
2023/10/08 08:11:16;;;;;;;6.75;2.95;;;16.50;96.80;;;;;;4947330;28;20110;-82
2023/10/08 08:13:42;;;;;;;5.40;3.10;;;16.50;96.70;;;;;;4966639;28;20039;-82
2023/10/08 08:16:16;;;;;;;7.55;3.50;;;16.50;96.50;;;;;;4967586;28;20390;-82
2023/10/08 08:18:48;;;;;;;5.15;3.03;;;16.50;96.50;;;;;;4972901;28;20042;-82
2023/10/08 08:21:15;;;;;;;5.60;3.17;;;16.50;96.40;;;;;;4996932;28;20390;-82
2023/10/08 08:23:47;;;;;;;6.47;3.08;;;16.50;96.40;;;;;;4979631;28;20027;-82
2023/10/08 08:26:26;;;;;;;6.80;3.47;;;16.60;96.50;;;;;;4997253;28;20027;-82
2023/10/08 08:29:02;;;;;;;8.18;3.45;;;16.60;96.40;;;;;;4997198;28;20057;-82
2023/10/08 08:31:46;;;;;;;6.65;3.88;;;16.60;96.40;;;;;;4997174;28;20034;-82
2023/10/08 08:34:54;;;;;;;6.22;3.78;;;16.60;96.30;;;;;;4948155;29;20102;-82
2023/10/08 08:37:29;;;;;;;6.18;3.58;;;16.50;96.30;;;;;;4921388;29;20168;-82
2023/10/08 08:40:09;;;;;;;6.35;3.70;;;16.50;96.40;;;;;;4902881;29;20057;-82
2023/10/08 08:42:36;;;;;;;6.53;3.95;;;16.40;96.50;;;;;;4887010;29;20161;-82
2023/10/08 08:45:09;;;;;;;4.68;2.80;;;16.40;96.60;;;;;;4917291;29;20116;-83
2023/10/08 08:47:35;;;;;;;5.72;3.30;;;16.40;96.70;;;;;;4917855;29;20408;-81
2023/10/08 08:50:08;;;;;;;5.13;3.40;;;16.40;96.70;;;;;;4917479;29;20044;-82
2023/10/08 08:52:40;;;;;;;5.87;2.87;;;16.40;96.90;;;;;;4917565;29;20032;-83
2023/10/08 08:55:14;;;;;;;7.75;3.33;;;16.40;96.80;;;;;;4917535;29;20032;-83
2023/10/08 08:57:43;;;;;;;5.55;3.05;;;16.50;97.00;;;;;;4917722;29;20096;-83
2023/10/08 09:00:14;;;;;;;6.13;2.78;;;16.50;97.00;;;;;;4917345;29;20093;-83
2023/10/08 09:02:47;;;;;;;6.25;3.20;;;16.50;97.10;;;;;;4901011;29;20047;-82
2023/10/08 09:05:23;;;;;;;8.13;3.50;;;16.50;97.10;;;;;;4916872;29;20035;-84
2023/10/08 09:07:54;;;;;;;9.75;4.00;;;16.50;97.00;;;;;;4967498;28;20081;-82
2023/10/08 09:10:25;;;;;;;6.95;2.78;;;16.50;97.00;;;;;;4978727;28;20034;-82
2023/10/08 09:12:52;;;;;;;7.05;3.42;;;16.50;97.00;;;;;;4974836;28;20103;-82
2023/10/08 09:15:25;;;;;;;6.82;3.47;;;16.60;97.00;;;;;;4965682;28;20027;-83
2023/10/08 09:17:52;;;;;;;6.97;2.33;;;16.60;97.00;;;;;;4944933;28;20039;-82
2023/10/08 09:20:19;;;;;;;6.07;2.22;;;16.60;96.90;;;;;;4946688;29;20063;-82
2023/10/08 09:22:47;;;;;;;6.25;2.45;;;16.60;96.80;;;;;;4953112;29;20114;-82
2023/10/08 09:25:22;;;;;;;4.78;2.13;;;16.70;96.80;;;;;;4939173;29;20038;-82
2023/10/08 09:27:55;;;;;;;4.68;2.22;;;16.80;96.80;;;;;;4956307;29;20032;-82
2023/10/08 09:30:22;;;;;;;4.50;1.90;;;16.80;96.70;;;;;;4954539;29;20035;-82
2023/10/08 09:32:49;;;;;;;5.60;1.55;;;16.90;96.50;;;;;;4956540;29;20031;-82
2023/10/08 09:35:15;;;;;;;4.70;1.60;;;17.00;96.40;;;;;;4956284;29;20118;-81
2023/10/08 09:37:42;;;;;;;2.65;1.02;;;17.10;96.20;;;;;;4956118;29;20032;-82
2023/10/08 09:40:11;;;;;;;3.70;1.10;;;17.10;95.70;;;;;;4939052;29;20099;-82
2023/10/08 09:42:39;;;;;;;4.68;1.70;;;17.10;95.30;;;;;;4953855;29;20930;-81
2023/10/08 09:45:08;;;;;;;4.90;0.85;;;17.10;95.20;;;;;;4956089;29;20507;-82
2023/10/08 09:47:40;;;;;;;4.05;1.40;;;17.10;95.10;;;;;;4956078;29;20045;-82
2023/10/08 09:50:07;;;;;;;3.22;0.90;;;17.20;95.10;;;;;;4938562;29;20499;-82
2023/10/08 09:53:06;;;;;;;3.65;0.60;;;17.20;94.90;;;;;;4947958;28;20196;-83
2023/10/08 09:55:31;;;;;;;5.20;0.90;;;17.30;94.60;;;;;;4958105;28;20086;-81
2023/10/08 09:57:58;;;;;;;2.45;0.50;;;17.30;94.40;;;;;;4940057;29;20031;-80
2023/10/08 10:00:33;;;;;;;4.75;1.02;;;17.50;94.30;;;;;;4939120;28;20488;-81
2023/10/08 10:03:01;;;;;;;2.33;0.70;;;17.50;94.10;;;;;;4938729;29;20036;-82
2023/10/08 10:05:42;;;;;;;3.90;0.90;;;17.50;93.90;;;;;;4939093;29;20098;-82
2023/10/08 10:08:15;;;;;;;4.55;1.10;;;17.60;93.80;;;;;;4938744;29;20044;-82
2023/10/08 10:10:50;;;;;;;3.42;0.60;;;17.60;93.60;;;;;;4916350;29;20048;-81
2023/10/08 10:13:18;;;;;;;4.57;0.70;;;17.70;93.50;;;;;;4931863;29;20035;-81
2023/10/08 10:15:47;;;;;;;2.13;0.70;;;17.70;93.20;;;;;;4928837;29;20051;-81
2023/10/08 10:18:32;;;;;;;3.50;0.80;;;17.80;93.00;;;;;;4937838;28;20042;-82
2023/10/08 10:21:31;;;;;;;2.63;0.70;;;17.80;92.80;;;;;;4916181;29;20052;-82
2023/10/08 10:23:57;;;;;;;2.72;0.70;;;17.90;92.70;;;;;;4922802;29;20046;-81
2023/10/08 10:26:35;;;;;;;3.53;0.90;;;17.90;92.70;;;;;;4924831;29;20048;-82
2023/10/08 10:29:22;;;;;;;4.10;0.93;;;18.00;92.50;;;;;;4914670;29;20067;-82
2023/10/08 10:31:54;;;;;;;1.98;0.57;;;18.00;92.30;;;;;;4914543;29;20121;-82
2023/10/08 10:34:22;;;;;;;1.95;0.65;;;18.10;92.20;;;;;;4925307;29;20119;-82
2023/10/08 10:36:55;;;;;;;2.03;0.45;;;18.20;92.00;;;;;;4925180;29;20521;-81
2023/10/08 10:39:27;;;;;;;3.38;0.65;;;18.30;91.90;;;;;;4925540;29;20059;-81
2023/10/08 10:41:57;;;;;;;2.35;0.80;;;18.40;91.80;;;;;;4916696;29;20038;-82
2023/10/08 10:44:23;;;;;;;2.50;0.60;;;18.50;91.60;;;;;;4925963;29;20047;-82
2023/10/08 10:47:22;;;;;;;3.08;0.80;;;18.50;91.40;;;;;;4917580;29;20044;-82
2023/10/08 10:50:48;;;;;;;4.25;0.77;;;18.60;91.20;;;;;;4925003;29;20035;-82
2023/10/08 10:52:53;;;;;;;3.03;0.70;;;18.60;91.00;;;;;;4953616;28;20034;-82
2023/10/08 10:55:22;;;;;;;1.33;0.60;;;18.70;90.80;;;;;;4965331;28;20062;-82
2023/10/08 10:58:04;;;;;;;2.92;0.50;;;18.70;90.70;;;;;;4944468;28;20070;-82
2023/10/08 11:03:17;;;;;;;2.40;0.50;;;18.80;90.50;;;;;;4966328;28;20035;-82
2023/10/08 11:05:51;;;;;;;2.33;0.85;;;18.90;90.20;;;;;;4947902;28;20039;-81
2023/10/08 11:08:19;;;;;;;;;;;18.90;89.70;;;;;;4965565;28;20035;-82
2023/10/08 11:10:58;;;;;;;2.45;0.90;;;18.90;88.40;;;;;;4947762;28;19914;-81
2023/10/08 11:13:37;;;;;;;3.03;0.82;;;18.90;89.40;;;;;;4945691;28;20027;-82
2023/10/08 11:16:05;;;;;;;2.75;0.70;;;18.90;88.70;;;;;;4966243;28;20039;-82
2023/10/08 11:18:32;;;;;;;2.70;0.85;;;18.90;88.60;;;;;;4946223;28;20133;-82
2023/10/08 11:21:15;;;;;;;3.00;0.65;;;18.90;88.50;;;;;;4964856;28;20081;-82
2023/10/08 11:24:24;;;;;;;2.42;0.80;;;18.90;88.20;;;;;;4946029;28;20491;-82
2023/10/08 11:27:16;;;;;;;2.58;0.80;;;18.90;88.00;;;;;;4925949;29;20028;-81
2023/10/08 11:29:46;;;;;;;1.75;0.73;;;19.00;87.90;;;;;;4914016;29;20532;-81
2023/10/08 11:32:15;;;;;;;2.10;0.80;;;19.00;87.70;;;;;;4913969;29;20026;-80
2023/10/08 11:34:41;;;;;;;1.80;0.60;;;19.10;87.50;;;;;;4890721;29;20142;-80
2023/10/08 11:37:25;;;;;;;3.47;0.85;;;19.00;87.40;;;;;;4914086;29;20044;-81
2023/10/08 11:39:53;;;;;;;2.13;0.70;;;19.00;86.60;;;;;;4904302;29;20036;-80
2023/10/08 11:45:17;;;;;;;4.88;0.80;;;18.90;86.30;;;;;;4913623;29;20400;-81
2023/10/08 11:47:45;;;;;;;2.72;0.80;;;18.90;86.30;;;;;;4907240;29;20165;-80
2023/10/08 11:50:16;;;;;;;4.07;0.77;;;18.90;86.60;;;;;;4897650;29;20512;-80
2023/10/08 11:52:43;;;;;;;1.98;0.60;;;18.90;86.30;;;;;;4900587;29;20101;-80
2023/10/08 11:55:10;;;;;;;2.40;0.57;;;19.00;86.40;;;;;;4897574;29;20432;-80
2023/10/08 11:57:45;;;;;;;3.40;0.70;;;19.00;86.20;;;;;;4931913;29;20456;-80
2023/10/08 12:00:21;;;;;;;3.42;0.80;;;19.10;85.90;;;;;;4955400;28;20038;-80
2023/10/08 12:02:48;;;;;;;2.75;0.70;;;19.00;85.30;;;;;;4966234;28;20114;-80
2023/10/08 12:05:20;;;;;;;3.80;0.70;;;19.00;85.30;;;;;;4945907;28;20397;-80
2023/10/08 12:07:51;;;;;;;2.50;0.70;;;19.00;85.20;;;;;;4965494;28;20119;-81
2023/10/08 12:10:23;;;;;;;3.20;0.70;;;18.90;85.10;;;;;;4945145;28;20031;-80
2023/10/08 12:12:52;;;;;;;2.50;0.82;;;18.80;85.10;;;;;;4933151;28;20023;-82
2023/10/08 12:15:34;;;;;;;3.67;0.85;;;18.70;85.30;;;;;;4962394;28;20123;-80
2023/10/08 12:18:15;;;;;;;3.00;0.70;;;18.70;85.40;;;;;;4938114;29;20094;-82
2023/10/08 12:20:44;;;;;;;2.03;0.65;;;18.70;85.50;;;;;;4922641;29;20060;-80
2023/10/08 12:23:24;;;;;;;2.55;1.10;;;18.70;85.50;;;;;;4937198;29;20055;-81
2023/10/08 12:25:59;;;;;;;4.18;0.80;;;18.70;85.30;;;;;;4954530;29;20495;-81
2023/10/08 12:28:34;;;;;;;2.55;0.85;;;18.70;85.30;;;;;;4937159;29;20110;-81
2023/10/08 12:31:12;;;;;;;2.22;0.70;;;18.60;85.30;;;;;;4937123;29;20039;-81
2023/10/08 12:33:43;;;;;;;2.95;0.93;;;18.60;85.40;;;;;;4953890;29;20031;-81
2023/10/08 12:36:12;;;;;;;2.40;0.50;;;18.60;85.70;;;;;;4930574;29;20031;-82
2023/10/08 12:39:11;;;;;;;3.22;0.77;;;18.60;85.70;;;;;;4936555;29;20181;-81
2023/10/08 12:41:38;;;;;;;1.10;0.65;;;18.60;85.70;;;;;;4936957;29;20031;-81
2023/10/08 12:44:08;;;;;;;2.03;0.90;;;18.60;85.90;;;;;;4954297;29;20032;-81
2023/10/08 12:46:38;;;;;;;2.42;0.75;;;18.70;86.10;;;;;;4951266;29;20031;-81
2023/10/08 12:49:06;;;;;;;3.05;1.20;;;18.70;86.20;;;;;;4920949;29;20039;-82
2023/10/08 12:51:35;;;;;;;2.17;0.88;;;18.80;86.30;;;;;;4954188;29;20042;-81
2023/10/08 12:54:28;;;;;;;4.43;1.00;;;18.90;86.40;;;;;;4936189;29;20185;-82
2023/10/08 12:56:55;;;;;;;1.98;0.90;;;19.00;86.50;;;;;;4920821;29;20040;-82
2023/10/08 12:59:24;;;;;;;2.83;0.90;;;19.10;86.50;;;;;;4936523;29;20035;-82
2023/10/08 13:02:10;;;;;;;2.80;1.05;;;19.10;86.50;;;;;;4915416;29;20040;-82
2023/10/08 13:04:41;;;;;;;3.80;1.25;;;19.10;86.30;;;;;;4918791;29;20543;-82
2023/10/08 13:07:06;;;;;;;3.72;1.30;;;19.10;86.20;;;;;;4935303;29;20050;-82
2023/10/08 13:09:37;;;;;;;3.60;0.93;;;19.10;86.00;;;;;;4920242;29;20036;-82
2023/10/08 13:12:04;;;;;;;2.10;0.75;;;19.00;85.80;;;;;;4920033;29;20032;-82
2023/10/08 13:14:30;;;;;;;2.47;0.85;;;19.00;86.00;;;;;;4935095;29;20043;-81
2023/10/08 13:16:56;;;;;;;2.15;0.90;;;18.90;86.20;;;;;;4935417;29;20127;-81
2023/10/08 13:19:23;;;;;;;2.80;1.20;;;18.90;86.40;;;;;;4920519;29;20176;-82
2023/10/08 13:21:52;;;;;;;3.47;1.77;;;18.90;86.70;;;;;;4899133;29;20032;-82
2023/10/08 13:24:25;;;;;;;4.32;1.55;;;18.80;86.90;;;;;;4901632;29;20036;-82
2023/10/08 13:26:50;;;;;;;4.32;1.10;;;18.90;87.10;;;;;;4906011;29;20180;-82
2023/10/08 13:29:23;;;;;;;3.83;1.35;;;18.70;87.10;;;;;;4922876;29;20166;-82
2023/10/08 13:31:57;;;;;;;3.22;0.93;;;18.60;88.00;;;;;;4921832;29;20043;-82
2023/10/08 13:34:45;;;;;;;2.10;1.40;;;18.60;87.70;;;;;;4900914;29;20070;-82
2023/10/08 13:37:23;;;;;;;3.55;1.30;;;18.60;88.00;;;;;;4915884;29;20040;-82
2023/10/08 13:39:50;;;;;;;4.50;1.55;;;18.50;88.30;;;;;;4910877;29;20572;-81
2023/10/08 13:42:20;;;;;;;4.82;1.45;;;18.60;88.50;;;;;;4900826;29;20421;-81
2023/10/08 13:44:47;;;;;;;4.57;1.50;;;18.60;88.60;;;;;;4926972;29;20047;-81
2023/10/08 13:47:35;;;;;;;4.40;1.20;;;18.60;88.90;;;;;;4934995;29;20034;-82
2023/10/08 13:50:03;;;;;;;5.03;1.13;;;18.60;89.00;;;;;;4862959;29;20513;-82
2023/10/08 13:52:29;;;;;;;2.70;1.30;;;18.70;89.10;;;;;;4872852;29;20036;-82
2023/10/08 13:54:59;;;;;;;5.68;1.05;;;18.70;89.20;;;;;;4881882;29;20057;-82
2023/10/08 13:57:32;;;;;;;6.32;1.40;;;18.70;89.10;;;;;;4897522;29;20516;-81
2023/10/08 14:00:12;;;;;;;4.78;1.42;;;18.80;89.30;;;;;;4882049;29;20067;-82
2023/10/08 14:02:40;;;;;;;1.88;0.88;;;18.80;89.20;;;;;;4881785;29;20041;-82
2023/10/08 14:05:08;;;;;;;3.47;1.00;;;18.80;89.10;;;;;;4879010;29;20116;-82
2023/10/08 14:08:12;;;;;;;2.97;1.10;;;18.70;88.90;;;;;;4894403;29;20081;-82
2023/10/08 14:10:43;;;;;;;2.22;0.80;;;18.70;89.30;;;;;;4887212;29;20540;-82
2023/10/08 14:13:51;;;;;;;3.10;1.02;;;18.70;89.40;;;;;;4881517;29;20037;-82
2023/10/08 14:16:28;;;;;;;3.20;1.17;;;18.70;89.70;;;;;;4863754;29;20045;-82
2023/10/08 14:18:57;;;;;;;2.25;0.88;;;18.80;89.80;;;;;;4882679;29;20044;-82
2023/10/08 14:21:30;;;;;;;3.95;1.13;;;18.80;89.80;;;;;;4915463;29;20036;-82
2023/10/08 14:24:15;;;;;;;2.35;1.05;;;18.80;89.90;;;;;;4916232;29;20043;-82
2023/10/08 14:26:42;;;;;;;3.78;1.00;;;18.80;90.00;;;;;;4915592;29;20119;-81
2023/10/08 14:29:14;;;;;;;3.42;0.90;;;18.80;90.00;;;;;;4915670;29;20040;-81
2023/10/08 14:31:42;;;;;;;3.30;0.90;;;18.70;90.00;;;;;;4915566;29;20101;-82
2023/10/08 14:45:11;;;;;;;4.07;1.67;;;18.70;90.00;;;;;;4975180;28;20046;-81